sensor_id;sensor_type;location;lat;lon;timestamp;temperature;humidity
4962;DHT22;2496;52.468;13.342;2023-06-14T00:00:04;15.10;92.60
4962;DHT22;2496;52.468;13.342;2023-06-14T00:02:33;15.10;92.70
4962;DHT22;2496;52.468;13.342;2023-06-14T00:05:00;15.20;92.80
4962;DHT22;2496;52.468;13.342;2023-06-14T00:07:37;15.10;93.00
4962;DHT22;2496;52.468;13.342;2023-06-14T00:10:10;15.10;93.20
4962;DHT22;2496;52.468;13.342;2023-06-14T00:12:38;15.10;93.20
4962;DHT22;2496;52.468;13.342;2023-06-14T00:15:07;15.10;93.40
4962;DHT22;2496;52.468;13.342;2023-06-14T00:17:35;15.10;93.40
4962;DHT22;2496;52.468;13.342;2023-06-14T00:20:04;15.10;93.60
4962;DHT22;2496;52.468;13.342;2023-06-14T00:22:33;15.10;93.70
4962;DHT22;2496;52.468;13.342;2023-06-14T00:25:02;15.20;93.70
4962;DHT22;2496;52.468;13.342;2023-06-14T00:27:31;15.20;93.80
4962;DHT22;2496;52.468;13.342;2023-06-14T00:29:58;15.20;94.10
4962;DHT22;2496;52.468;13.342;2023-06-14T00:32:25;15.10;94.10
4962;DHT22;2496;52.468;13.342;2023-06-14T00:34:53;15.20;94.40
4962;DHT22;2496;52.468;13.342;2023-06-14T00:37:20;15.10;94.70
4962;DHT22;2496;52.468;13.342;2023-06-14T00:39:47;15.10;94.90
4962;DHT22;2496;52.468;13.342;2023-06-14T00:42:23;15.00;95.30
4962;DHT22;2496;52.468;13.342;2023-06-14T00:44:52;15.00;95.60
4962;DHT22;2496;52.468;13.342;2023-06-14T00:47:19;14.90;96.00
4962;DHT22;2496;52.468;13.342;2023-06-14T00:49:48;14.90;96.30
4962;DHT22;2496;52.468;13.342;2023-06-14T00:52:16;14.90;96.50
4962;DHT22;2496;52.468;13.342;2023-06-14T00:54:43;14.90;96.80
4962;DHT22;2496;52.468;13.342;2023-06-14T00:57:11;14.80;97.40
4962;DHT22;2496;52.468;13.342;2023-06-14T00:59:42;14.90;97.50
4962;DHT22;2496;52.468;13.342;2023-06-14T01:02:12;14.80;98.00
4962;DHT22;2496;52.468;13.342;2023-06-14T01:04:41;14.70;98.40
4962;DHT22;2496;52.468;13.342;2023-06-14T01:07:18;14.70;98.60
4962;DHT22;2496;52.468;13.342;2023-06-14T01:09:57;14.70;99.20
4962;DHT22;2496;52.468;13.342;2023-06-14T01:12:35;14.70;99.40
4962;DHT22;2496;52.468;13.342;2023-06-14T01:15:05;14.70;99.70
4962;DHT22;2496;52.468;13.342;2023-06-14T01:17:34;14.70;99.90
4962;DHT22;2496;52.468;13.342;2023-06-14T01:20:02;14.70;99.90
4962;DHT22;2496;52.468;13.342;2023-06-14T01:22:35;14.70;99.90
4962;DHT22;2496;52.468;13.342;2023-06-14T01:25:05;14.70;99.90
4962;DHT22;2496;52.468;13.342;2023-06-14T01:27:32;14.60;99.90
4962;DHT22;2496;52.468;13.342;2023-06-14T01:30:04;14.70;99.90
4962;DHT22;2496;52.468;13.342;2023-06-14T01:32:31;14.60;99.90
4962;DHT22;2496;52.468;13.342;2023-06-14T01:34:58;14.60;99.90
4962;DHT22;2496;52.468;13.342;2023-06-14T01:37:25;14.60;99.90
4962;DHT22;2496;52.468;13.342;2023-06-14T01:39:53;14.60;99.90
4962;DHT22;2496;52.468;13.342;2023-06-14T01:42:25;14.60;99.90
4962;DHT22;2496;52.468;13.342;2023-06-14T01:44:53;14.60;99.90
4962;DHT22;2496;52.468;13.342;2023-06-14T01:47:21;14.60;99.90
4962;DHT22;2496;52.468;13.342;2023-06-14T01:49:49;14.60;99.90
4962;DHT22;2496;52.468;13.342;2023-06-14T01:52:16;14.50;99.90
4962;DHT22;2496;52.468;13.342;2023-06-14T01:54:43;14.50;99.90
4962;DHT22;2496;52.468;13.342;2023-06-14T01:57:11;14.50;99.90
4962;DHT22;2496;52.468;13.342;2023-06-14T01:59:40;14.50;99.90
4962;DHT22;2496;52.468;13.342;2023-06-14T02:02:07;14.40;99.90
4962;DHT22;2496;52.468;13.342;2023-06-14T02:04:34;14.30;99.90
4962;DHT22;2496;52.468;13.342;2023-06-14T02:07:01;14.30;99.90
4962;DHT22;2496;52.468;13.342;2023-06-14T02:09:28;14.30;99.90
4962;DHT22;2496;52.468;13.342;2023-06-14T02:11:55;14.30;99.90
4962;DHT22;2496;52.468;13.342;2023-06-14T02:14:23;14.30;99.90
4962;DHT22;2496;52.468;13.342;2023-06-14T02:16:51;14.30;99.90
4962;DHT22;2496;52.468;13.342;2023-06-14T02:19:19;14.20;99.90
4962;DHT22;2496;52.468;13.342;2023-06-14T02:21:47;14.20;99.90
4962;DHT22;2496;52.468;13.342;2023-06-14T02:24:14;14.10;99.90
4962;DHT22;2496;52.468;13.342;2023-06-14T02:26:41;14.20;99.90
4962;DHT22;2496;52.468;13.342;2023-06-14T02:29:09;14.20;99.90
4962;DHT22;2496;52.468;13.342;2023-06-14T02:31:38;14.20;99.90
4962;DHT22;2496;52.468;13.342;2023-06-14T02:34:06;14.20;99.90
4962;DHT22;2496;52.468;13.342;2023-06-14T02:36:35;14.20;99.90
4962;DHT22;2496;52.468;13.342;2023-06-14T02:39:11;14.30;99.90
4962;DHT22;2496;52.468;13.342;2023-06-14T02:41:38;14.30;99.90
4962;DHT22;2496;52.468;13.342;2023-06-14T02:44:05;14.30;99.90
4962;DHT22;2496;52.468;13.342;2023-06-14T02:46:32;14.30;99.90
4962;DHT22;2496;52.468;13.342;2023-06-14T02:48:59;14.30;99.90
4962;DHT22;2496;52.468;13.342;2023-06-14T02:51:27;14.20;99.90
4962;DHT22;2496;52.468;13.342;2023-06-14T02:53:55;14.20;99.90
4962;DHT22;2496;52.468;13.342;2023-06-14T02:56:22;14.10;99.90
4962;DHT22;2496;52.468;13.342;2023-06-14T02:58:49;14.10;99.90
4962;DHT22;2496;52.468;13.342;2023-06-14T03:01:16;14.20;99.90
4962;DHT22;2496;52.468;13.342;2023-06-14T03:03:43;14.20;99.90
4962;DHT22;2496;52.468;13.342;2023-06-14T03:06:10;14.20;99.90
4962;DHT22;2496;52.468;13.342;2023-06-14T03:08:41;14.20;99.90
4962;DHT22;2496;52.468;13.342;2023-06-14T03:11:08;14.10;99.90
4962;DHT22;2496;52.468;13.342;2023-06-14T03:13:35;14.20;99.90
4962;DHT22;2496;52.468;13.342;2023-06-14T03:16:03;14.20;99.90
4962;DHT22;2496;52.468;13.342;2023-06-14T03:18:30;14.20;99.90
4962;DHT22;2496;52.468;13.342;2023-06-14T03:21:01;14.20;99.90
4962;DHT22;2496;52.468;13.342;2023-06-14T03:23:28;14.20;99.90
4962;DHT22;2496;52.468;13.342;2023-06-14T03:25:56;14.30;99.90
4962;DHT22;2496;52.468;13.342;2023-06-14T03:28:23;14.20;99.90
4962;DHT22;2496;52.468;13.342;2023-06-14T03:30:51;14.20;99.90
4962;DHT22;2496;52.468;13.342;2023-06-14T03:33:18;14.10;99.90
4962;DHT22;2496;52.468;13.342;2023-06-14T03:35:46;14.10;99.90
4962;DHT22;2496;52.468;13.342;2023-06-14T03:38:13;14.10;99.90
4962;DHT22;2496;52.468;13.342;2023-06-14T03:40:40;14.20;99.90
4962;DHT22;2496;52.468;13.342;2023-06-14T03:43:08;14.10;99.90
4962;DHT22;2496;52.468;13.342;2023-06-14T03:45:36;14.20;99.90
4962;DHT22;2496;52.468;13.342;2023-06-14T03:48:03;14.20;99.90
4962;DHT22;2496;52.468;13.342;2023-06-14T03:50:32;14.20;99.90
4962;DHT22;2496;52.468;13.342;2023-06-14T03:52:59;14.20;99.90
4962;DHT22;2496;52.468;13.342;2023-06-14T03:55:26;14.30;99.90
4962;DHT22;2496;52.468;13.342;2023-06-14T03:57:56;14.30;99.90
4962;DHT22;2496;52.468;13.342;2023-06-14T04:00:25;14.40;99.90
4962;DHT22;2496;52.468;13.342;2023-06-14T04:02:52;14.40;99.90
4962;DHT22;2496;52.468;13.342;2023-06-14T04:05:19;14.40;99.90
4962;DHT22;2496;52.468;13.342;2023-06-14T04:07:46;14.40;99.90
4962;DHT22;2496;52.468;13.342;2023-06-14T04:10:15;14.50;99.90
4962;DHT22;2496;52.468;13.342;2023-06-14T04:25:04;14.60;99.90
4962;DHT22;2496;52.468;13.342;2023-06-14T04:27:32;14.70;99.90
4962;DHT22;2496;52.468;13.342;2023-06-14T04:30:02;14.70;99.90
4962;DHT22;2496;52.468;13.342;2023-06-14T04:32:29;14.70;99.90
4962;DHT22;2496;52.468;13.342;2023-06-14T04:35:00;14.70;99.90
4962;DHT22;2496;52.468;13.342;2023-06-14T04:37:29;14.80;99.90
4962;DHT22;2496;52.468;13.342;2023-06-14T04:39:56;14.80;99.90
4962;DHT22;2496;52.468;13.342;2023-06-14T04:42:23;14.90;99.90
4962;DHT22;2496;52.468;13.342;2023-06-14T04:44:56;15.00;99.90
4962;DHT22;2496;52.468;13.342;2023-06-14T04:47:24;15.10;99.90
4962;DHT22;2496;52.468;13.342;2023-06-14T04:49:56;15.10;99.90
4962;DHT22;2496;52.468;13.342;2023-06-14T04:52:24;15.10;99.90
4962;DHT22;2496;52.468;13.342;2023-06-14T04:54:52;15.10;99.90
4962;DHT22;2496;52.468;13.342;2023-06-14T04:57:19;15.20;99.90
4962;DHT22;2496;52.468;13.342;2023-06-14T04:59:48;15.20;99.90
4962;DHT22;2496;52.468;13.342;2023-06-14T05:02:21;15.30;99.90
4962;DHT22;2496;52.468;13.342;2023-06-14T05:04:49;15.30;99.90
4962;DHT22;2496;52.468;13.342;2023-06-14T05:07:17;15.40;99.90
4962;DHT22;2496;52.468;13.342;2023-06-14T05:09:45;15.60;99.90
4962;DHT22;2496;52.468;13.342;2023-06-14T05:12:12;15.70;99.90
4962;DHT22;2496;52.468;13.342;2023-06-14T05:14:43;15.80;99.90
4962;DHT22;2496;52.468;13.342;2023-06-14T05:17:10;15.80;99.90
4962;DHT22;2496;52.468;13.342;2023-06-14T05:19:37;15.80;99.90
4962;DHT22;2496;52.468;13.342;2023-06-14T05:22:04;15.80;99.90
4962;DHT22;2496;52.468;13.342;2023-06-14T05:24:31;15.70;99.90
4962;DHT22;2496;52.468;13.342;2023-06-14T05:27:00;15.70;99.90
4962;DHT22;2496;52.468;13.342;2023-06-14T05:29:27;15.80;99.90
4962;DHT22;2496;52.468;13.342;2023-06-14T05:31:54;15.80;99.90
4962;DHT22;2496;52.468;13.342;2023-06-14T05:34:21;16.00;99.90
4962;DHT22;2496;52.468;13.342;2023-06-14T05:36:48;16.00;99.90
4962;DHT22;2496;52.468;13.342;2023-06-14T05:39:15;16.10;99.90
4962;DHT22;2496;52.468;13.342;2023-06-14T05:41:42;16.20;99.90
4962;DHT22;2496;52.468;13.342;2023-06-14T05:44:11;16.30;99.90
4962;DHT22;2496;52.468;13.342;2023-06-14T05:46:38;16.30;99.90
4962;DHT22;2496;52.468;13.342;2023-06-14T05:49:05;16.40;99.90
4962;DHT22;2496;52.468;13.342;2023-06-14T05:51:32;16.50;99.90
4962;DHT22;2496;52.468;13.342;2023-06-14T05:53:59;16.50;99.90
4962;DHT22;2496;52.468;13.342;2023-06-14T05:56:27;16.50;99.90
4962;DHT22;2496;52.468;13.342;2023-06-14T05:58:54;16.50;99.90
4962;DHT22;2496;52.468;13.342;2023-06-14T06:01:22;16.50;99.90
4962;DHT22;2496;52.468;13.342;2023-06-14T06:03:49;16.60;99.90
4962;DHT22;2496;52.468;13.342;2023-06-14T06:06:16;16.50;99.90
4962;DHT22;2496;52.468;13.342;2023-06-14T06:08:43;16.60;99.90
4962;DHT22;2496;52.468;13.342;2023-06-14T06:11:10;16.50;99.90
4962;DHT22;2496;52.468;13.342;2023-06-14T06:13:38;16.60;99.90
4962;DHT22;2496;52.468;13.342;2023-06-14T06:16:06;16.60;99.90
4962;DHT22;2496;52.468;13.342;2023-06-14T06:18:34;16.70;99.90
4962;DHT22;2496;52.468;13.342;2023-06-14T06:21:03;16.60;99.90
4962;DHT22;2496;52.468;13.342;2023-06-14T06:23:30;16.50;99.90
4962;DHT22;2496;52.468;13.342;2023-06-14T06:25:57;16.60;99.90
4962;DHT22;2496;52.468;13.342;2023-06-14T06:28:24;16.60;99.90
4962;DHT22;2496;52.468;13.342;2023-06-14T06:30:51;16.60;99.90
4962;DHT22;2496;52.468;13.342;2023-06-14T06:33:19;16.50;99.90
4962;DHT22;2496;52.468;13.342;2023-06-14T06:35:47;16.50;99.90
4962;DHT22;2496;52.468;13.342;2023-06-14T06:38:14;16.50;99.90
4962;DHT22;2496;52.468;13.342;2023-06-14T06:40:41;16.50;99.90
4962;DHT22;2496;52.468;13.342;2023-06-14T06:43:08;16.40;99.90
4962;DHT22;2496;52.468;13.342;2023-06-14T06:45:35;16.50;99.90
4962;DHT22;2496;52.468;13.342;2023-06-14T06:48:02;16.50;99.90
4962;DHT22;2496;52.468;13.342;2023-06-14T06:50:29;16.40;99.90
4962;DHT22;2496;52.468;13.342;2023-06-14T06:52:58;16.40;99.90
4962;DHT22;2496;52.468;13.342;2023-06-14T06:55:25;16.50;99.90
4962;DHT22;2496;52.468;13.342;2023-06-14T06:57:51;16.60;99.90
4962;DHT22;2496;52.468;13.342;2023-06-14T07:00:19;16.70;99.90
4962;DHT22;2496;52.468;13.342;2023-06-14T07:02:47;16.70;99.90
4962;DHT22;2496;52.468;13.342;2023-06-14T07:05:14;16.70;99.90
4962;DHT22;2496;52.468;13.342;2023-06-14T07:07:41;16.80;99.90
4962;DHT22;2496;52.468;13.342;2023-06-14T07:10:10;16.90;99.90
4962;DHT22;2496;52.468;13.342;2023-06-14T07:12:37;17.00;99.90
4962;DHT22;2496;52.468;13.342;2023-06-14T07:15:06;17.10;99.90
4962;DHT22;2496;52.468;13.342;2023-06-14T07:17:34;17.30;99.90
4962;DHT22;2496;52.468;13.342;2023-06-14T07:20:02;17.30;99.90
4962;DHT22;2496;52.468;13.342;2023-06-14T07:22:38;17.30;99.90
4962;DHT22;2496;52.468;13.342;2023-06-14T07:25:07;17.40;99.90
4962;DHT22;2496;52.468;13.342;2023-06-14T07:27:35;17.40;99.90
4962;DHT22;2496;52.468;13.342;2023-06-14T07:30:02;17.50;99.90
4962;DHT22;2496;52.468;13.342;2023-06-14T07:32:29;17.60;99.90
4962;DHT22;2496;52.468;13.342;2023-06-14T07:34:56;17.70;99.90
4962;DHT22;2496;52.468;13.342;2023-06-14T07:37:23;17.80;99.90
4962;DHT22;2496;52.468;13.342;2023-06-14T07:39:51;17.90;99.90
4962;DHT22;2496;52.468;13.342;2023-06-14T07:42:18;18.10;99.90
4962;DHT22;2496;52.468;13.342;2023-06-14T07:44:46;18.40;99.90
4962;DHT22;2496;52.468;13.342;2023-06-14T07:47:13;18.60;99.90
4962;DHT22;2496;52.468;13.342;2023-06-14T07:49:40;18.90;99.90
4962;DHT22;2496;52.468;13.342;2023-06-14T07:52:07;19.00;99.10
4962;DHT22;2496;52.468;13.342;2023-06-14T07:54:34;19.10;99.00
4962;DHT22;2496;52.468;13.342;2023-06-14T07:57:01;19.10;99.00
4962;DHT22;2496;52.468;13.342;2023-06-14T07:59:28;18.90;99.00
4962;DHT22;2496;52.468;13.342;2023-06-14T08:01:57;18.60;99.50
4962;DHT22;2496;52.468;13.342;2023-06-14T08:04:23;18.50;99.90
4962;DHT22;2496;52.468;13.342;2023-06-14T08:06:51;18.60;99.90
4962;DHT22;2496;52.468;13.342;2023-06-14T08:09:19;18.70;99.80
4962;DHT22;2496;52.468;13.342;2023-06-14T08:11:46;18.80;99.70
4962;DHT22;2496;52.468;13.342;2023-06-14T08:14:13;18.90;99.30
4962;DHT22;2496;52.468;13.342;2023-06-14T08:16:40;18.90;99.10
4962;DHT22;2496;52.468;13.342;2023-06-14T08:19:08;18.80;99.10
4962;DHT22;2496;52.468;13.342;2023-06-14T08:21:35;18.60;99.50
4962;DHT22;2496;52.468;13.342;2023-06-14T08:24:03;18.70;99.20
4962;DHT22;2496;52.468;13.342;2023-06-14T08:26:30;18.80;98.70
4962;DHT22;2496;52.468;13.342;2023-06-14T08:28:57;19.50;99.10
4962;DHT22;2496;52.468;13.342;2023-06-14T08:31:24;18.80;99.00
4962;DHT22;2496;52.468;13.342;2023-06-14T08:33:53;18.70;99.50
4962;DHT22;2496;52.468;13.342;2023-06-14T08:36:21;18.80;99.00
4962;DHT22;2496;52.468;13.342;2023-06-14T08:38:48;19.00;98.00
4962;DHT22;2496;52.468;13.342;2023-06-14T08:41:21;19.10;97.70
4962;DHT22;2496;52.468;13.342;2023-06-14T08:43:48;19.10;99.40
4962;DHT22;2496;52.468;13.342;2023-06-14T08:46:18;19.10;97.90
4962;DHT22;2496;52.468;13.342;2023-06-14T08:48:47;19.20;97.70
4962;DHT22;2496;52.468;13.342;2023-06-14T08:51:18;19.30;96.60
4962;DHT22;2496;52.468;13.342;2023-06-14T08:53:52;19.30;96.50
4962;DHT22;2496;52.468;13.342;2023-06-14T08:56:23;19.20;97.20
4962;DHT22;2496;52.468;13.342;2023-06-14T08:58:51;19.10;96.70
4962;DHT22;2496;52.468;13.342;2023-06-14T09:01:19;19.00;96.60
4962;DHT22;2496;52.468;13.342;2023-06-14T09:03:48;19.10;96.70
4962;DHT22;2496;52.468;13.342;2023-06-14T09:06:15;19.10;96.70
4962;DHT22;2496;52.468;13.342;2023-06-14T09:08:45;19.20;96.90
4962;DHT22;2496;52.468;13.342;2023-06-14T09:11:15;19.40;97.00
4962;DHT22;2496;52.468;13.342;2023-06-14T09:13:45;19.40;96.50
4962;DHT22;2496;52.468;13.342;2023-06-14T09:16:12;19.50;96.70
4962;DHT22;2496;52.468;13.342;2023-06-14T09:18:40;19.70;96.20
4962;DHT22;2496;52.468;13.342;2023-06-14T09:21:10;19.70;96.10
4962;DHT22;2496;52.468;13.342;2023-06-14T09:23:38;19.90;95.50
4962;DHT22;2496;52.468;13.342;2023-06-14T09:26:07;20.00;95.80
4962;DHT22;2496;52.468;13.342;2023-06-14T09:28:36;19.80;95.80
4962;DHT22;2496;52.468;13.342;2023-06-14T09:31:03;19.70;96.00
4962;DHT22;2496;52.468;13.342;2023-06-14T09:33:31;19.80;95.90
4962;DHT22;2496;52.468;13.342;2023-06-14T09:35:59;19.80;96.00
4962;DHT22;2496;52.468;13.342;2023-06-14T09:38:26;19.80;96.20
4962;DHT22;2496;52.468;13.342;2023-06-14T09:40:55;19.90;96.10
4962;DHT22;2496;52.468;13.342;2023-06-14T09:43:23;20.00;96.00
4962;DHT22;2496;52.468;13.342;2023-06-14T09:45:54;20.00;94.90
4962;DHT22;2496;52.468;13.342;2023-06-14T09:48:21;20.10;94.10
4962;DHT22;2496;52.468;13.342;2023-06-14T09:50:50;20.00;94.10
4962;DHT22;2496;52.468;13.342;2023-06-14T09:53:21;20.10;94.00
4962;DHT22;2496;52.468;13.342;2023-06-14T09:55:50;20.20;93.80
4962;DHT22;2496;52.468;13.342;2023-06-14T09:58:20;20.30;93.70
4962;DHT22;2496;52.468;13.342;2023-06-14T10:00:50;20.30;93.90
4962;DHT22;2496;52.468;13.342;2023-06-14T10:03:24;20.00;94.20
4962;DHT22;2496;52.468;13.342;2023-06-14T10:05:52;20.20;94.00
4962;DHT22;2496;52.468;13.342;2023-06-14T10:08:24;20.20;94.30
4962;DHT22;2496;52.468;13.342;2023-06-14T10:10:53;20.30;94.30
4962;DHT22;2496;52.468;13.342;2023-06-14T10:13:22;20.40;94.00
4962;DHT22;2496;52.468;13.342;2023-06-14T10:15:56;20.30;93.60
4962;DHT22;2496;52.468;13.342;2023-06-14T10:18:32;20.30;93.50
4962;DHT22;2496;52.468;13.342;2023-06-14T10:21:05;20.30;93.70
4962;DHT22;2496;52.468;13.342;2023-06-14T10:23:38;20.40;93.60
4962;DHT22;2496;52.468;13.342;2023-06-14T10:26:07;20.40;93.30
4962;DHT22;2496;52.468;13.342;2023-06-14T10:28:37;20.40;93.60
4962;DHT22;2496;52.468;13.342;2023-06-14T10:31:09;20.40;93.60
4962;DHT22;2496;52.468;13.342;2023-06-14T10:33:40;20.30;93.90
4962;DHT22;2496;52.468;13.342;2023-06-14T10:36:28;20.30;93.50
4962;DHT22;2496;52.468;13.342;2023-06-14T10:39:05;20.40;92.90
4962;DHT22;2496;52.468;13.342;2023-06-14T10:41:36;20.40;92.90
4962;DHT22;2496;52.468;13.342;2023-06-14T10:47:30;20.30;92.70
4962;DHT22;2496;52.468;13.342;2023-06-14T10:50:05;20.40;92.50
4962;DHT22;2496;52.468;13.342;2023-06-14T10:52:38;20.20;93.40
4962;DHT22;2496;52.468;13.342;2023-06-14T10:55:08;20.00;93.60
4962;DHT22;2496;52.468;13.342;2023-06-14T10:57:37;20.00;94.30
4962;DHT22;2496;52.468;13.342;2023-06-14T11:00:07;20.10;94.00
4962;DHT22;2496;52.468;13.342;2023-06-14T11:05:56;20.40;93.20
4962;DHT22;2496;52.468;13.342;2023-06-14T11:08:46;20.50;93.10
4962;DHT22;2496;52.468;13.342;2023-06-14T11:11:18;20.50;93.00
4962;DHT22;2496;52.468;13.342;2023-06-14T11:13:48;20.40;92.60
4962;DHT22;2496;52.468;13.342;2023-06-14T11:16:16;20.50;92.50
4962;DHT22;2496;52.468;13.342;2023-06-14T11:18:44;20.70;92.20
4962;DHT22;2496;52.468;13.342;2023-06-14T11:21:15;20.70;91.80
4962;DHT22;2496;52.468;13.342;2023-06-14T11:23:48;20.80;91.60
4962;DHT22;2496;52.468;13.342;2023-06-14T11:26:15;20.90;92.00
4962;DHT22;2496;52.468;13.342;2023-06-14T11:28:42;20.90;92.10
4962;DHT22;2496;52.468;13.342;2023-06-14T11:31:09;20.80;92.10
4962;DHT22;2496;52.468;13.342;2023-06-14T11:33:36;20.80;91.80
4962;DHT22;2496;52.468;13.342;2023-06-14T11:36:05;20.90;91.30
4962;DHT22;2496;52.468;13.342;2023-06-14T11:38:36;21.00;91.10
4962;DHT22;2496;52.468;13.342;2023-06-14T11:41:04;20.90;91.10
4962;DHT22;2496;52.468;13.342;2023-06-14T11:43:31;21.00;91.50
4962;DHT22;2496;52.468;13.342;2023-06-14T11:46:00;21.10;90.80
4962;DHT22;2496;52.468;13.342;2023-06-14T11:48:36;21.30;91.10
4962;DHT22;2496;52.468;13.342;2023-06-14T11:51:03;21.50;90.00
4962;DHT22;2496;52.468;13.342;2023-06-14T11:53:30;21.70;89.00
4962;DHT22;2496;52.468;13.342;2023-06-14T11:55:59;21.70;88.50
4962;DHT22;2496;52.468;13.342;2023-06-14T11:58:26;21.70;89.40
4962;DHT22;2496;52.468;13.342;2023-06-14T12:00:53;21.70;89.40
4962;DHT22;2496;52.468;13.342;2023-06-14T12:03:23;21.70;90.00
4962;DHT22;2496;52.468;13.342;2023-06-14T12:06:02;21.70;88.10
4962;DHT22;2496;52.468;13.342;2023-06-14T12:08:33;21.70;87.80
4962;DHT22;2496;52.468;13.342;2023-06-14T12:11:06;21.70;87.20
4962;DHT22;2496;52.468;13.342;2023-06-14T12:13:34;21.70;88.10
4962;DHT22;2496;52.468;13.342;2023-06-14T12:16:02;21.60;87.80
4962;DHT22;2496;52.468;13.342;2023-06-14T12:18:34;21.60;87.10
4962;DHT22;2496;52.468;13.342;2023-06-14T12:21:02;21.70;88.00
4962;DHT22;2496;52.468;13.342;2023-06-14T12:23:42;21.80;87.90
4962;DHT22;2496;52.468;13.342;2023-06-14T12:26:12;22.00;86.70
4962;DHT22;2496;52.468;13.342;2023-06-14T12:28:40;22.00;86.00
4962;DHT22;2496;52.468;13.342;2023-06-14T12:31:07;22.00;86.70
4962;DHT22;2496;52.468;13.342;2023-06-14T12:33:34;22.00;87.00
4962;DHT22;2496;52.468;13.342;2023-06-14T12:36:03;22.00;87.20
4962;DHT22;2496;52.468;13.342;2023-06-14T12:38:30;22.20;85.10
4962;DHT22;2496;52.468;13.342;2023-06-14T12:40:57;22.30;83.80
4962;DHT22;2496;52.468;13.342;2023-06-14T12:43:26;22.10;84.90
4962;DHT22;2496;52.468;13.342;2023-06-14T12:45:53;22.20;84.20
4962;DHT22;2496;52.468;13.342;2023-06-14T12:48:20;22.00;83.60
4962;DHT22;2496;52.468;13.342;2023-06-14T12:50:48;22.00;84.10
4962;DHT22;2496;52.468;13.342;2023-06-14T12:53:15;22.10;83.50
4962;DHT22;2496;52.468;13.342;2023-06-14T12:55:42;22.20;84.20
4962;DHT22;2496;52.468;13.342;2023-06-14T12:58:09;22.40;83.10
4962;DHT22;2496;52.468;13.342;2023-06-14T13:00:39;22.60;82.00
4962;DHT22;2496;52.468;13.342;2023-06-14T13:03:06;22.30;81.10
4962;DHT22;2496;52.468;13.342;2023-06-14T13:05:34;22.40;80.50
4962;DHT22;2496;52.468;13.342;2023-06-14T13:08:01;22.30;80.60
4962;DHT22;2496;52.468;13.342;2023-06-14T13:10:28;22.40;80.50
4962;DHT22;2496;52.468;13.342;2023-06-14T13:12:55;22.30;80.10
4962;DHT22;2496;52.468;13.342;2023-06-14T13:15:23;22.40;80.80
4962;DHT22;2496;52.468;13.342;2023-06-14T13:17:52;22.50;78.40
4962;DHT22;2496;52.468;13.342;2023-06-14T13:20:19;22.60;78.80
4962;DHT22;2496;52.468;13.342;2023-06-14T13:22:46;22.90;78.90
4962;DHT22;2496;52.468;13.342;2023-06-14T13:25:13;23.00;76.20
4962;DHT22;2496;52.468;13.342;2023-06-14T13:27:40;23.10;76.60
4962;DHT22;2496;52.468;13.342;2023-06-14T13:30:08;23.10;75.40
4962;DHT22;2496;52.468;13.342;2023-06-14T13:32:36;23.10;74.00
4962;DHT22;2496;52.468;13.342;2023-06-14T13:35:05;23.10;73.50
4962;DHT22;2496;52.468;13.342;2023-06-14T13:37:32;23.10;73.30
4962;DHT22;2496;52.468;13.342;2023-06-14T13:39:59;23.10;72.80
4962;DHT22;2496;52.468;13.342;2023-06-14T13:42:27;23.30;72.40
4962;DHT22;2496;52.468;13.342;2023-06-14T13:44:56;23.30;72.60
4962;DHT22;2496;52.468;13.342;2023-06-14T13:47:23;23.30;72.80
4962;DHT22;2496;52.468;13.342;2023-06-14T13:49:50;23.30;72.30
4962;DHT22;2496;52.468;13.342;2023-06-14T13:52:19;23.30;72.90
4962;DHT22;2496;52.468;13.342;2023-06-14T13:54:46;23.40;74.30
4962;DHT22;2496;52.468;13.342;2023-06-14T13:57:13;23.30;74.90
4962;DHT22;2496;52.468;13.342;2023-06-14T13:59:41;23.30;73.90
4962;DHT22;2496;52.468;13.342;2023-06-14T14:02:09;23.20;73.20
4962;DHT22;2496;52.468;13.342;2023-06-14T14:04:37;23.20;72.70
4962;DHT22;2496;52.468;13.342;2023-06-14T14:07:05;23.20;73.70
4962;DHT22;2496;52.468;13.342;2023-06-14T14:09:34;23.20;74.30
4962;DHT22;2496;52.468;13.342;2023-06-14T14:12:03;23.20;74.10
4962;DHT22;2496;52.468;13.342;2023-06-14T14:14:31;23.20;73.40
4962;DHT22;2496;52.468;13.342;2023-06-14T14:16:58;23.30;74.00
4962;DHT22;2496;52.468;13.342;2023-06-14T14:19:25;23.40;74.80
4962;DHT22;2496;52.468;13.342;2023-06-14T14:21:52;23.40;73.20
4962;DHT22;2496;52.468;13.342;2023-06-14T14:24:20;23.20;73.00
4962;DHT22;2496;52.468;13.342;2023-06-14T14:26:48;23.20;72.70
4962;DHT22;2496;52.468;13.342;2023-06-14T14:29:16;23.20;73.50
4962;DHT22;2496;52.468;13.342;2023-06-14T14:31:43;23.10;73.60
4962;DHT22;2496;52.468;13.342;2023-06-14T14:34:10;23.00;74.10
4962;DHT22;2496;52.468;13.342;2023-06-14T14:36:37;23.10;72.50
4962;DHT22;2496;52.468;13.342;2023-06-14T14:39:07;23.00;72.90
4962;DHT22;2496;52.468;13.342;2023-06-14T14:41:34;22.90;73.40
4962;DHT22;2496;52.468;13.342;2023-06-14T14:44:05;22.80;73.00
4962;DHT22;2496;52.468;13.342;2023-06-14T14:46:32;22.90;73.40
4962;DHT22;2496;52.468;13.342;2023-06-14T14:48:59;22.90;73.00
4962;DHT22;2496;52.468;13.342;2023-06-14T14:51:26;22.80;73.20
4962;DHT22;2496;52.468;13.342;2023-06-14T14:53:53;22.80;73.00
4962;DHT22;2496;52.468;13.342;2023-06-14T14:56:22;22.80;72.50
4962;DHT22;2496;52.468;13.342;2023-06-14T14:58:49;22.80;72.60
4962;DHT22;2496;52.468;13.342;2023-06-14T15:01:17;22.80;72.80
4962;DHT22;2496;52.468;13.342;2023-06-14T15:03:44;22.80;72.90
4962;DHT22;2496;52.468;13.342;2023-06-14T15:06:11;22.80;72.30
4962;DHT22;2496;52.468;13.342;2023-06-14T15:08:38;22.80;73.40
4962;DHT22;2496;52.468;13.342;2023-06-14T15:11:05;22.80;73.80
4962;DHT22;2496;52.468;13.342;2023-06-14T15:13:32;22.70;74.00
4962;DHT22;2496;52.468;13.342;2023-06-14T15:15:59;22.70;74.30
4962;DHT22;2496;52.468;13.342;2023-06-14T15:18:27;22.60;74.40
4962;DHT22;2496;52.468;13.342;2023-06-14T15:20:54;22.60;74.50
4962;DHT22;2496;52.468;13.342;2023-06-14T15:23:22;22.60;74.60
4962;DHT22;2496;52.468;13.342;2023-06-14T15:25:49;22.60;74.40
4962;DHT22;2496;52.468;13.342;2023-06-14T15:28:17;22.50;74.20
4962;DHT22;2496;52.468;13.342;2023-06-14T15:30:44;22.50;74.50
4962;DHT22;2496;52.468;13.342;2023-06-14T15:33:11;22.40;74.00
4962;DHT22;2496;52.468;13.342;2023-06-14T15:35:40;22.40;73.90
4962;DHT22;2496;52.468;13.342;2023-06-14T15:38:07;22.30;73.70
4962;DHT22;2496;52.468;13.342;2023-06-14T15:40:34;22.30;73.80
4962;DHT22;2496;52.468;13.342;2023-06-14T15:43:00;22.30;73.70
4962;DHT22;2496;52.468;13.342;2023-06-14T15:45:29;22.20;73.70
4962;DHT22;2496;52.468;13.342;2023-06-14T15:47:56;22.30;73.80
4962;DHT22;2496;52.468;13.342;2023-06-14T15:50:24;22.20;73.70
4962;DHT22;2496;52.468;13.342;2023-06-14T15:52:52;22.30;73.90
4962;DHT22;2496;52.468;13.342;2023-06-14T15:55:19;22.30;73.80
4962;DHT22;2496;52.468;13.342;2023-06-14T15:57:46;22.30;73.80
4962;DHT22;2496;52.468;13.342;2023-06-14T16:00:14;22.40;73.60
4962;DHT22;2496;52.468;13.342;2023-06-14T16:02:41;22.40;73.50
4962;DHT22;2496;52.468;13.342;2023-06-14T16:05:11;22.40;73.80
4962;DHT22;2496;52.468;13.342;2023-06-14T16:07:39;22.50;73.70
4962;DHT22;2496;52.468;13.342;2023-06-14T16:10:08;22.50;73.60